Fall River Mills, CA (96028)

10:02 AM PDT on March 27, 2017 (GMT -0700)
MACKEY'S COVE | | Change Station

Elev 3350 ft 41.02 °N, 121.44 °W | Updated 58 minutes ago

Overcast
Overcast
36.3 °F
Feels Like 36 °F
N
0.0
Wind Variable Wind from West

Today
High -- | Low -- °F
--% Chance of Precip.
Yesterday
High -- | Low -- °F
Precip. -- in
Pressure 30.25 in
Visibility 10.0 miles
Clouds Overcast 300 ft
Windchill 36 °F
Dew Point 36 °F
Humidity 99%
Rainfall 0.01 in
Snow Depth Not available.
6:56 AM 7:25 PM
Waning Crescent, 0% visible
METAR KMHS 271656Z AUTO 00000KT 10SM OVC003 02/01 A3015 RMK AO2 CIG 003V007 SLP244 T00170006
Pressure 30.25 in
Visibility 10.0 miles
Clouds Overcast 300 ft
Windchill 36 °F
Dew Point 36 °F
Humidity 99%
Rainfall 0.01 in
Snow Depth Not available.
6:56 AM 7:25 PM
Waning Crescent, 0% visible
METAR KMHS 271656Z AUTO 00000KT 10SM OVC003 02/01 A3015 RMK AO2 CIG 003V007 SLP244 T00170006

Get Severe Weather Alerts

Thanks for signing up!

Be on the lookout for a verification email in your inbox.

You'll start receiving the daily forecast at 8 AM.

×

10-Day Weather Forecast

Almanac

Astronomy

Mar. 27, 2017 Rise Set
Actual Time
Civil Twilight
Nautical Twilight
Astronomical Twilight
Moon
Length of Visible Light
Length of Day
Tomorrow will be .
, % of the Moon is Illuminated

Today's Extremes

State Highs State Lows

Community

WunderPhotos

Upload Photos

1,962,540 photos uploaded!

WunderBlog® & News

Nearby

Air Quality

  Air Quality AQ Index Pollutant
Not available.

Snow Depth

Station Depth Elevation

Earthquake Activity

City Distance Mag. Time & Date
Minimum magnitude displayed is 2.5.

Earthquake Activity

City Distance Mag. Time & Date
Minimum magnitude displayed is 2.5.

Coastal Water Temperatures

Place Temperature

Stations

Nearby Weather Stations

Station Location Temp. Windchill Dew Point Humidity Wind Precip. Elev Updated Type
                   

Watches & Warnings

There are currently no watches in effect.